Latest Weather Observations for Mount Crawford

IDS60901

Issued at 12:35 pm CST Friday 18 April 2014 (issued every 10 minutes, with the page automatically refreshed every 10 minutes)

About weather observations | Map of Adelaide area stations | Latest observations for Adelaide area | Other Formats
Station Details ID: 023878 Name: MT CRAWFORD AWS Lat: -34.73 Lon: 138.93 Height: 525.0 m
Data from the previous 72 hours. | See also: Recent months at Mount Crawford
Date/Time
CST
Tmp

°C
App
Tmp
°C
Dew
Point
°C
Rel
Hum
%
Delta-T

°C
Wind Press
QNH
hPa
Press
MSL
hPa
Rain
since
9 am
mm
Dir
 
Spd
km/h
Gust
km/h
Spd
kts
Gust
kts
18/12:30pm 17.2 14.5 11.7 70 3.1 WSW 17 24 9 13 1021.0 1020.1 0.0
18/12:00pm 15.0 12.1 9.8 71 2.8 SW 15 24 8 13 1021.5 1020.5 0.0
18/11:30am 16.4 13.4 10.5 68 3.2 WSW 17 30 9 16 1021.6 1020.6 0.0
18/11:00am 13.9 10.3 10.5 80 1.8 SSW 20 30 11 16 1021.8 - 0.0
18/10:30am 14.8 12.0 11.4 80 1.9 WSW 17 32 9 17 1021.7 1020.8 0.0
18/10:00am 13.9 11.1 12.5 91 0.8 SSW 19 26 10 14 1021.7 - 0.0
18/09:30am 13.4 10.8 13.2 99 0.1 SSW 19 30 10 16 1021.5 1020.5 0.0
18/09:00am 12.9 11.7 12.9 100 0.0 SW 11 17 6 9 1021.3 1020.3 2.0
18/08:30am 12.5 8.3 12.5 100 0.0 SSW 26 33 14 18 1020.9 1020.0 1.8
18/08:00am 13.1 10.3 13.1 100 0.0 W 20 30 11 16 1020.3 - 0.2
18/07:30am 13.1 10.5 13.1 100 0.0 W 19 28 10 15 1020.1 1019.2 0.2
18/07:00am 12.9 10.0 12.9 100 0.0 W 20 28 11 15 1020.1 - 0.2
18/06:30am 12.8 9.4 12.6 99 0.1 W 22 32 12 17 1019.8 1018.8 0.0
18/06:00am 12.9 9.2 12.7 99 0.1 W 24 33 13 18 1019.8 1018.8 0.0
18/05:30am 12.9 9.6 12.7 99 0.1 W 22 32 12 17 1019.7 1018.7 0.0
18/05:00am 12.7 8.9 12.5 99 0.1 W 24 35 13 19 1019.4 - 0.0
18/04:30am 12.8 9.4 12.6 99 0.1 W 22 32 12 17 1019.3 1018.3 0.0
18/04:00am 12.8 9.0 12.5 98 0.2 W 24 35 13 19 1018.8 - 0.0
18/03:30am 12.9 8.0 12.7 99 0.1 W 30 41 16 22 1018.6 1017.7 0.0
18/03:00am 13.1 7.9 12.9 99 0.1 W 32 44 17 24 1018.4 1017.5 0.0
18/02:30am 13.2 8.8 13.0 99 0.1 W 28 39 15 21 1018.5 1017.6 0.0
18/02:00am 13.2 8.1 13.0 99 0.1 W 32 41 17 22 1018.7 - 0.0
18/01:30am 13.1 8.9 12.5 96 0.3 W 26 35 14 19 1018.8 1017.9 0.0
18/01:00am 13.3 9.0 12.0 92 0.7 W 26 33 14 18 1018.9 - 0.0
18/12:30am 13.4 10.2 11.8 90 0.9 W 20 28 11 15 1019.2 1018.2 0.0
18/12:00am 13.7 9.5 11.2 85 1.4 W 24 30 13 16 1019.5 1018.5 0.0
 
Date/Time
CST
Tmp

°C
App
Tmp
°C
Dew
Point
°C
Rel
Hum
%
Delta-T

°C
Wind Press
QNH
hPa
Press
MSL
hPa
Rain
since
9 am
mm
Dir
 
Spd
km/h
Gust
km/h
Spd
kts
Gust
kts
17/11:30pm 14.0 10.1 10.8 81 1.7 W 22 30 12 16 1019.7 1018.7 0.0
17/11:00pm 14.6 10.3 10.6 77 2.2 W 24 35 13 19 1019.9 - 0.0
17/10:30pm 14.9 10.5 10.5 75 2.4 W 24 28 13 15 1020.1 1019.2 0.0
17/10:00pm 15.6 11.2 10.4 71 2.8 W 24 35 13 19 1020.2 - 0.0
17/09:30pm 15.4 11.4 10.6 73 2.6 W 22 28 12 15 1020.3 1019.4 0.0
17/09:00pm 15.6 12.0 10.6 72 2.7 W 20 26 11 14 1020.3 1019.4 0.0
17/08:30pm 15.7 12.3 10.7 72 2.7 W 19 22 10 12 1020.2 1019.3 0.0
17/08:00pm 15.5 13.0 11.1 75 2.4 W 15 19 8 10 1020.2 - 0.0
17/07:30pm 15.2 13.4 11.0 76 2.3 W 11 13 6 7 1020.1 1019.2 0.0
17/07:00pm 15.4 13.7 11.2 76 2.3 W 11 13 6 7 1020.1 - 0.0
17/06:30pm 15.8 13.7 11.2 74 2.5 W 13 17 7 9 1020.0 1019.1 0.0
17/06:00pm 16.2 14.4 10.9 71 2.9 W 11 17 6 9 1019.9 1018.9 0.0
17/05:30pm 17.0 14.8 10.8 67 3.4 W 13 20 7 11 1019.8 1018.8 0.0
17/05:00pm 18.1 15.1 10.5 61 4.2 W 17 24 9 13 1019.6 - 0.0
17/04:30pm 18.5 14.8 9.6 56 4.8 W 19 24 10 13 1019.6 1018.6 0.0
17/04:00pm 19.0 15.2 8.9 52 5.4 W 19 26 10 14 1019.7 - 0.0
17/03:30pm 19.1 14.7 7.5 47 6.0 W 20 30 11 16 1019.8 1018.8 0.0
17/03:00pm 19.2 15.6 9.7 54 5.2 WNW 19 30 10 16 1019.9 1018.9 0.0
17/02:30pm 19.8 16.8 10.5 55 5.1 W 17 26 9 14 1020.1 1019.2 0.0
17/02:00pm 18.9 16.2 10.2 57 4.8 NW 15 22 8 12 1020.3 - 0.0
17/01:30pm 19.0 15.9 10.3 57 4.8 WNW 17 30 9 16 1020.5 1019.6 0.0
17/01:00pm 19.3 16.7 10.6 57 4.8 NW 15 22 8 12 1021.0 - 0.0
17/12:30pm 18.7 15.5 9.8 56 4.8 NNW 17 24 9 13 1021.5 1020.5 0.0
17/12:00pm 17.1 15.2 10.5 65 3.6 WNW 11 17 6 9 1021.8 1020.9 0.0
17/11:30am 17.9 15.8 11.2 65 3.7 WNW 13 19 7 10 1022.1 1021.2 0.0
17/11:00am 17.8 16.0 10.7 63 3.9 WNW 11 15 6 8 1022.0 - 0.0
17/10:30am 17.2 15.8 12.3 73 2.8 W 11 15 6 8 1021.9 1021.0 0.0
17/10:00am 16.1 14.9 11.5 74 2.6 W 9 15 5 8 1021.9 - 0.0
17/09:30am 15.3 13.9 12.2 82 1.7 W 11 13 6 7 1021.9 1021.0 0.0
17/09:00am 14.5 13.6 12.7 89 1.0 WNW 9 11 5 6 1021.8 1020.9 -
17/08:30am 13.8 12.5 12.4 91 0.8 WNW 11 13 6 7 1021.7 1020.8 -
17/08:00am 13.0 12.2 13.0 100 0.0 WNW 9 13 5 7 1021.5 - -
17/07:30am 12.0 10.5 12.0 100 0.0 W 11 13 6 7 1021.4 1020.4 -
17/07:00am 11.3 9.2 11.3 100 0.0 W 13 15 7 8 1021.0 - -
17/06:30am 11.1 9.8 11.1 100 0.0 W 9 11 5 6 1020.7 1019.8 -
17/06:00am 11.7 10.1 11.7 100 0.0 W 11 13 6 7 1020.6 1019.7 -
17/05:30am 11.7 10.1 11.5 99 0.1 W 11 13 6 7 1020.4 1019.5 -
17/05:00am 11.6 10.0 11.4 99 0.1 W 11 13 6 7 1020.2 - -
17/04:30am 11.7 10.1 11.5 99 0.1 W 11 13 6 7 1020.1 1019.2 -
17/04:00am 11.8 9.8 11.5 98 0.2 W 13 15 7 8 1020.0 - -
17/03:30am 11.8 9.7 11.0 95 0.4 WSW 13 17 7 9 1019.9 1018.9 -
17/03:00am 11.9 9.6 10.5 91 0.7 WSW 13 15 7 8 1020.0 1019.1 0.0
17/02:30am 12.2 9.4 10.1 87 1.1 WSW 15 17 8 9 1020.1 1019.2 -
17/02:00am 12.4 9.3 8.7 78 1.9 WSW 15 19 8 10 1020.3 - -
17/01:30am 12.7 9.8 8.2 74 2.3 WSW 13 19 7 10 1020.4 1019.5 -
17/01:00am 12.8 9.9 8.1 73 2.4 WSW 13 17 7 9 1020.4 - -
17/12:30am 12.9 9.9 7.8 71 2.6 SW 13 17 7 9 1020.5 1019.6 -
17/12:00am 13.4 10.4 7.6 68 2.9 W 13 15 7 8 1020.4 1019.5 -
 
Date/Time
CST
Tmp

°C
App
Tmp
°C
Dew
Point
°C
Rel
Hum
%
Delta-T

°C
Wind Press
QNH
hPa
Press
MSL
hPa
Rain
since
9 am
mm
Dir
 
Spd
km/h
Gust
km/h
Spd
kts
Gust
kts
16/11:30pm 13.4 12.9 7.8 69 2.8 CALM 0 2 0 1 1020.6 1019.7 -
16/11:00pm 14.1 14.1 9.7 75 2.3 CALM 0 0 0 0 1020.7 - -
16/10:30pm 14.6 14.4 9.0 69 2.9 CALM 0 0 0 0 1020.8 1019.9 -
16/10:00pm 14.9 14.4 7.7 62 3.7 CALM 0 0 0 0 1020.8 - -
16/09:30pm 14.7 14.0 7.0 60 3.9 CALM 0 0 0 0 1020.8 1019.9 -
16/09:00pm 14.8 14.1 7.1 60 3.9 CALM 0 0 0 0 1020.8 1019.9 0.0
16/08:30pm 14.6 14.0 7.2 61 3.7 CALM 0 0 0 0 1020.7 1019.8 -
16/08:00pm 14.3 12.4 6.9 61 3.7 S 6 7 3 4 1020.3 - -
16/07:30pm 15.1 12.3 6.9 58 4.1 S 11 13 6 7 1020.3 1019.4 -
16/07:00pm 14.9 12.1 7.0 59 4.0 SSW 11 13 6 7 1020.3 - -
16/06:30pm 15.1 11.9 6.9 58 4.1 WSW 13 17 7 9 1020.1 1019.2 -
16/06:00pm 15.3 12.5 6.8 57 4.3 WSW 11 15 6 8 1019.9 1018.9 -
16/05:30pm 16.7 13.1 6.8 52 5.0 W 15 22 8 12 1019.8 1018.8 -
16/05:00pm 18.1 14.2 6.9 48 5.8 WSW 17 24 9 13 1019.5 - -
16/04:30pm 18.5 13.9 6.7 46 6.0 W 20 28 11 15 1019.3 1018.3 -
16/04:00pm 17.7 14.4 6.6 48 5.7 W 13 20 7 11 1019.2 - -
16/03:30pm 18.5 13.3 5.4 42 6.5 W 22 32 12 17 1019.4 1018.4 -
16/03:00pm 18.5 12.6 6.0 44 6.3 W 26 37 14 20 1019.4 1018.4 -
16/02:30pm 18.8 13.9 6.9 46 6.1 W 22 32 12 17 1019.5 1018.5 -
16/02:00pm 19.2 - 8.5 50 5.7 - - - - - 1019.2 - -
16/12:00pm 18.0 14.5 8.6 54 5.0 NW 17 22 9 12 1020.1 1019.2 0.0
16/11:30am 17.5 13.9 8.4 55 4.8 WNW 17 26 9 14 1020.8 1019.9 0.0
16/11:00am 16.5 12.3 8.2 58 4.3 W 20 28 11 15 1021.0 - 0.0
16/10:30am 16.1 12.6 8.8 62 3.8 WNW 17 24 9 13 1020.9 1020.0 0.0
16/10:00am 16.3 13.6 8.8 61 4.0 N 13 19 7 10 1020.7 - 0.0
16/09:30am 15.4 12.5 8.2 62 3.7 N 13 19 7 10 1020.8 1019.9 0.0
16/09:00am 14.6 12.0 9.4 71 2.7 N 13 17 7 9 1021.2 1020.2 0.0
16/08:30am 14.6 11.9 8.8 68 3.0 NNW 13 19 7 10 1021.2 1020.2 0.0
16/08:00am 13.5 11.4 8.4 71 2.6 NNE 9 13 5 7 1020.7 - 0.0
16/07:30am 13.2 11.4 8.1 71 2.6 NNE 7 11 4 6 1020.8 1019.9 0.0
16/07:00am 12.7 10.0 7.4 70 2.7 NNW 11 13 6 7 1020.8 - 0.0
16/06:30am 12.7 10.8 7.6 71 2.6 N 7 11 4 6 1020.6 1019.7 0.0
16/06:00am 12.1 10.6 8.6 79 1.8 NE 6 7 3 4 1020.5 1019.6 0.0
16/05:30am 11.9 10.5 8.7 81 1.6 ENE 6 6 3 3 1020.4 1019.5 0.0
16/05:00am 11.3 9.4 9.0 86 1.2 E 9 11 5 6 1020.2 - 0.0
16/04:30am 10.7 8.0 8.8 88 1.0 ESE 13 15 7 8 1020.2 1019.3 0.0
16/04:00am 10.9 8.1 8.7 86 1.1 ESE 13 17 7 9 1020.1 - 0.0
16/03:30am 11.2 8.0 8.6 84 1.3 SSE 15 17 8 9 1020.5 1019.6 0.0
16/03:00am 11.1 7.7 9.0 87 1.1 SSE 17 20 9 11 1020.6 1019.7 0.0
16/02:30am 11.0 7.2 8.9 87 1.1 SSE 19 22 10 12 1020.8 1019.9 0.0
16/02:00am 11.1 7.0 8.5 84 1.3 SSE 20 24 11 13 1021.0 - 0.0
16/01:30am 10.9 6.8 8.5 85 1.2 SSE 20 26 11 14 1021.4 1020.4 0.0
16/01:00am 11.1 6.6 8.7 85 1.2 SSE 22 26 12 14 1021.6 - 0.0
16/12:30am 10.6 6.4 9.7 94 0.5 SSE 22 28 12 15 1021.5 1020.5 0.0
16/12:00am 10.2 6.1 10.0 99 0.1 S 22 26 12 14 1021.6 1020.6 0.0
 
Date/Time
CST
Tmp

°C
App
Tmp
°C
Dew
Point
°C
Rel
Hum
%
Delta-T

°C
Wind Press
QNH
hPa
Press
MSL
hPa
Rain
since
9 am
mm
Dir
 
Spd
km/h
Gust
km/h
Spd
kts
Gust
kts
15/11:30pm 10.1 6.3 9.9 99 0.1 SSE 20 24 11 13 1021.5 1020.5 0.0
15/11:00pm 10.0 5.8 9.9 99 0.1 SSE 22 30 12 16 1021.7 - 0.0
15/10:30pm 10.2 6.0 9.9 98 0.2 SSE 22 28 12 15 1022.2 1021.3 0.0
15/10:00pm 10.5 6.6 9.6 94 0.5 SSE 20 24 11 13 1022.2 - 0.0
15/09:30pm 10.2 6.6 9.9 98 0.2 SE 19 24 10 13 1022.1 1021.2 0.0
15/09:00pm 10.4 6.5 9.6 95 0.4 SSE 20 26 11 14 1022.3 1021.4 0.0
15/08:30pm 10.7 6.8 9.5 92 0.6 SSE 20 26 11 14 1022.0 1021.1 0.0
15/08:00pm 11.0 7.3 9.4 90 0.8 SE 19 24 10 13 1021.9 - 0.0
15/07:30pm 11.7 8.0 9.3 85 1.2 SE 19 24 10 13 1021.9 1021.0 0.0
15/07:00pm 12.8 8.8 8.9 77 2.0 SSE 20 28 11 15 1022.2 - 0.0
15/06:30pm 13.7 11.5 7.9 68 2.9 ESE 9 11 5 6 1021.8 1020.9 0.0
15/06:00pm 13.9 11.4 8.1 68 3.0 ESE 11 13 6 7 1021.8 1020.9 0.0
15/05:30pm 14.9 12.8 8.4 65 3.4 E 9 11 5 6 1021.8 1020.9 0.0
15/05:00pm 15.7 13.6 8.2 61 3.9 SE 9 15 5 8 1022.2 - 0.0
15/04:30pm 15.9 12.9 7.9 59 4.1 ESE 13 17 7 9 1021.6 1020.6 0.0
15/04:00pm 16.2 13.2 7.7 57 4.4 ESE 13 19 7 10 1021.3 - 0.0
15/03:30pm 16.9 14.2 8.8 59 4.3 ESE 13 20 7 11 1021.3 1020.3 0.0
15/03:00pm 16.8 14.1 8.8 59 4.2 E 13 24 7 13 1021.5 1020.5 0.0
15/02:30pm 16.2 13.1 8.7 61 3.9 ESE 15 24 8 13 1021.7 1020.8 0.0
15/02:00pm 16.2 12.8 9.2 63 3.7 ESE 17 26 9 14 1021.7 - 0.0
15/01:30pm 16.6 12.9 9.5 63 3.8 E 19 28 10 15 1021.6 1020.6 0.0
15/01:00pm 16.1 12.2 9.3 64 3.6 ESE 20 33 11 18 1021.7 - 0.0

Latest Capital City Observations: Canberra | Sydney | Melbourne | Brisbane | Adelaide | Perth | Hobart | Darwin

Other Formats:

Comma delimited format used in spreadsheet applications
http://www.bom.gov.au/fwo/IDS60901/IDS60901.94678.axf

JavaScript Object Notation format (JSON) in row-major order
http://www.bom.gov.au/fwo/IDS60901/IDS60901.94678.json